sensor_id;sensor_type;location;lat;lon;timestamp;pressure;altitude;pressure_sealevel;temperature;humidity
72336;BME280;65062;48.446;8.834;2023-03-12T00:00:57;97133.09;;;-1.59;81.61
72336;BME280;65062;48.446;8.834;2023-03-12T00:04:00;97140.66;;;-1.58;82.30
72336;BME280;65062;48.446;8.834;2023-03-12T00:07:02;97130.63;;;-1.61;82.42
72336;BME280;65062;48.446;8.834;2023-03-12T00:10:04;97136.78;;;-1.52;83.47
72336;BME280;65062;48.446;8.834;2023-03-12T00:13:05;97139.16;;;-1.60;82.85
72336;BME280;65062;48.446;8.834;2023-03-12T00:16:13;97140.66;;;-1.69;82.12
72336;BME280;65062;48.446;8.834;2023-03-12T00:19:14;97134.38;;;-1.65;81.99
72336;BME280;65062;48.446;8.834;2023-03-12T00:22:14;97120.25;;;-1.70;82.09
72336;BME280;65062;48.446;8.834;2023-03-12T00:25:16;97121.00;;;-1.79;81.92
72336;BME280;65062;48.446;8.834;2023-03-12T00:28:16;97122.16;;;-1.72;82.20
72336;BME280;65062;48.446;8.834;2023-03-12T00:31:23;97129.84;;;-1.83;83.02
72336;BME280;65062;48.446;8.834;2023-03-12T00:34:26;97133.44;;;-1.75;82.80
72336;BME280;65062;48.446;8.834;2023-03-12T00:37:26;97130.88;;;-1.75;83.45
72336;BME280;65062;48.446;8.834;2023-03-12T00:40:27;97127.03;;;-1.69;83.11
72336;BME280;65062;48.446;8.834;2023-03-12T00:43:27;97120.88;;;-1.89;83.25
72336;BME280;65062;48.446;8.834;2023-03-12T00:46:28;97119.03;;;-1.98;83.49
72336;BME280;65062;48.446;8.834;2023-03-12T00:49:28;97114.72;;;-1.97;83.45
72336;BME280;65062;48.446;8.834;2023-03-12T00:52:28;97119.03;;;-1.87;83.77
72336;BME280;65062;48.446;8.834;2023-03-12T00:55:29;97126.34;;;-1.93;83.46
72336;BME280;65062;48.446;8.834;2023-03-12T00:58:30;97119.81;;;-1.86;83.63
72336;BME280;65062;48.446;8.834;2023-03-12T01:01:30;97116.56;;;-1.99;84.19
72336;BME280;65062;48.446;8.834;2023-03-12T01:04:30;97123.09;;;-1.95;84.41
72336;BME280;65062;48.446;8.834;2023-03-12T01:07:31;97122.72;;;-1.91;84.45
72336;BME280;65062;48.446;8.834;2023-03-12T01:10:31;97115.03;;;-1.91;84.11
72336;BME280;65062;48.446;8.834;2023-03-12T01:13:32;97112.25;;;-1.88;83.89
72336;BME280;65062;48.446;8.834;2023-03-12T01:16:32;97113.50;;;-1.71;83.75
72336;BME280;65062;48.446;8.834;2023-03-12T01:19:33;97110.00;;;-1.70;83.54
72336;BME280;65062;48.446;8.834;2023-03-12T01:22:34;97108.03;;;-1.67;83.75
72336;BME280;65062;48.446;8.834;2023-03-12T01:25:35;97104.84;;;-1.59;83.71
72336;BME280;65062;48.446;8.834;2023-03-12T01:28:36;97115.66;;;-1.45;83.51
72336;BME280;65062;48.446;8.834;2023-03-12T01:31:36;97115.41;;;-1.42;83.90
72336;BME280;65062;48.446;8.834;2023-03-12T01:34:36;97119.38;;;-1.38;83.60
72336;BME280;65062;48.446;8.834;2023-03-12T01:37:37;97126.72;;;-1.33;82.51
72336;BME280;65062;48.446;8.834;2023-03-12T01:40:38;97132.44;;;-1.30;82.38
72336;BME280;65062;48.446;8.834;2023-03-12T01:43:38;97135.22;;;-1.33;81.69
72336;BME280;65062;48.446;8.834;2023-03-12T01:46:40;97131.59;;;-1.30;81.25
72336;BME280;65062;48.446;8.834;2023-03-12T01:49:49;97140.78;;;-1.28;81.88
72336;BME280;65062;48.446;8.834;2023-03-12T01:52:50;97135.06;;;-1.20;81.86
72336;BME280;65062;48.446;8.834;2023-03-12T01:55:50;97139.28;;;-1.19;81.22
72336;BME280;65062;48.446;8.834;2023-03-12T01:58:54;97137.03;;;-1.13;81.01
72336;BME280;65062;48.446;8.834;2023-03-12T02:01:55;97130.25;;;-1.14;80.43
72336;BME280;65062;48.446;8.834;2023-03-12T02:05:04;97127.44;;;-1.11;80.06
72336;BME280;65062;48.446;8.834;2023-03-12T02:08:06;97126.63;;;-1.11;80.26
72336;BME280;65062;48.446;8.834;2023-03-12T02:11:06;97125.53;;;-0.98;81.00
72336;BME280;65062;48.446;8.834;2023-03-12T02:14:07;97128.22;;;-0.99;80.37
72336;BME280;65062;48.446;8.834;2023-03-12T02:17:08;97124.56;;;-0.97;80.84
72336;BME280;65062;48.446;8.834;2023-03-12T02:23:33;97120.16;;;-0.95;80.88
72336;BME280;65062;48.446;8.834;2023-03-12T02:26:35;97106.09;;;-0.91;80.85
72336;BME280;65062;48.446;8.834;2023-03-12T02:29:39;97115.19;;;-0.87;81.13
72336;BME280;65062;48.446;8.834;2023-03-12T02:32:40;97113.78;;;-0.80;80.54
72336;BME280;65062;48.446;8.834;2023-03-12T02:35:42;97117.84;;;-0.77;80.61
72336;BME280;65062;48.446;8.834;2023-03-12T02:38:49;97124.56;;;-0.65;80.24
72336;BME280;65062;48.446;8.834;2023-03-12T02:41:53;97121.72;;;-0.62;79.72
72336;BME280;65062;48.446;8.834;2023-03-12T02:44:54;97129.44;;;-0.62;80.42
72336;BME280;65062;48.446;8.834;2023-03-12T02:47:55;97124.31;;;-0.62;80.16
72336;BME280;65062;48.446;8.834;2023-03-12T02:50:55;97111.13;;;-0.69;79.78
72336;BME280;65062;48.446;8.834;2023-03-12T02:53:56;97112.38;;;-0.63;80.62
72336;BME280;65062;48.446;8.834;2023-03-12T02:56:57;97115.13;;;-0.55;80.00
72336;BME280;65062;48.446;8.834;2023-03-12T02:59:57;97110.69;;;-0.53;79.28
72336;BME280;65062;48.446;8.834;2023-03-12T03:03:01;97110.94;;;-0.56;80.47
72336;BME280;65062;48.446;8.834;2023-03-12T03:06:01;97104.84;;;-0.55;80.26
72336;BME280;65062;48.446;8.834;2023-03-12T03:09:02;97101.06;;;-0.61;80.23
72336;BME280;65062;48.446;8.834;2023-03-12T03:12:03;97098.97;;;-0.67;79.93
72336;BME280;65062;48.446;8.834;2023-03-12T03:15:04;97085.19;;;-0.66;80.19
72336;BME280;65062;48.446;8.834;2023-03-12T03:18:04;97084.56;;;-0.58;79.91
72336;BME280;65062;48.446;8.834;2023-03-12T03:21:07;97079.41;;;-0.58;80.46
72336;BME280;65062;48.446;8.834;2023-03-12T03:24:07;97076.16;;;-0.60;80.69
72336;BME280;65062;48.446;8.834;2023-03-12T03:27:08;97073.66;;;-0.51;80.27
72336;BME280;65062;48.446;8.834;2023-03-12T03:30:09;97073.13;;;-0.45;80.37
72336;BME280;65062;48.446;8.834;2023-03-12T03:33:09;97073.66;;;-0.51;79.62
72336;BME280;65062;48.446;8.834;2023-03-12T03:36:10;97079.16;;;-0.55;80.47
72336;BME280;65062;48.446;8.834;2023-03-12T03:39:13;97078.66;;;-0.49;80.02
72336;BME280;65062;48.446;8.834;2023-03-12T03:42:14;97073.66;;;-0.51;79.82
72336;BME280;65062;48.446;8.834;2023-03-12T03:45:14;97091.13;;;-0.45;79.99
72336;BME280;65062;48.446;8.834;2023-03-12T03:48:15;97093.00;;;-0.47;80.38
72336;BME280;65062;48.446;8.834;2023-03-12T03:51:15;97091.25;;;-0.46;80.36
72336;BME280;65062;48.446;8.834;2023-03-12T03:54:16;97096.69;;;-0.40;80.27
72336;BME280;65062;48.446;8.834;2023-03-12T03:57:17;97088.31;;;-0.32;80.69
72336;BME280;65062;48.446;8.834;2023-03-12T04:00:17;97098.09;;;-0.26;80.36
72336;BME280;65062;48.446;8.834;2023-03-12T04:03:18;97083.28;;;-0.13;80.44
72336;BME280;65062;48.446;8.834;2023-03-12T04:06:18;97082.34;;;-0.12;80.54
72336;BME280;65062;48.446;8.834;2023-03-12T04:09:19;97083.97;;;-0.11;80.66
72336;BME280;65062;48.446;8.834;2023-03-12T04:12:19;97085.19;;;-0.06;79.48
72336;BME280;65062;48.446;8.834;2023-03-12T04:15:20;97095.09;;;-0.01;79.37
72336;BME280;65062;48.446;8.834;2023-03-12T04:18:20;97096.19;;;-0.04;78.89
72336;BME280;65062;48.446;8.834;2023-03-12T04:21:21;97096.69;;;-0.10;79.61
72336;BME280;65062;48.446;8.834;2023-03-12T04:24:21;97096.56;;;-0.08;79.64
72336;BME280;65062;48.446;8.834;2023-03-12T04:27:22;97098.88;;;-0.05;79.88
72336;BME280;65062;48.446;8.834;2023-03-12T04:30:22;97092.00;;;-0.05;79.78
72336;BME280;65062;48.446;8.834;2023-03-12T04:33:22;97072.91;;;-0.02;79.70
72336;BME280;65062;48.446;8.834;2023-03-12T04:36:23;97081.31;;;0.00;79.53
72336;BME280;65062;48.446;8.834;2023-03-12T04:39:24;97082.94;;;0.01;79.55
72336;BME280;65062;48.446;8.834;2023-03-12T04:42:24;97068.97;;;0.03;79.60
72336;BME280;65062;48.446;8.834;2023-03-12T04:45:24;97061.75;;;0.28;78.46
72336;BME280;65062;48.446;8.834;2023-03-12T04:48:25;97065.38;;;0.25;77.94
72336;BME280;65062;48.446;8.834;2023-03-12T04:51:26;97077.97;;;0.28;78.91
72336;BME280;65062;48.446;8.834;2023-03-12T04:54:26;97064.31;;;0.28;79.05
72336;BME280;65062;48.446;8.834;2023-03-12T04:57:27;97066.31;;;0.15;79.13
72336;BME280;65062;48.446;8.834;2023-03-12T05:00:28;97066.44;;;0.13;79.47
72336;BME280;65062;48.446;8.834;2023-03-12T05:03:29;97063.88;;;0.13;79.93
72336;BME280;65062;48.446;8.834;2023-03-12T05:06:29;97062.94;;;0.14;80.41
72336;BME280;65062;48.446;8.834;2023-03-12T05:09:30;97067.38;;;0.12;80.82
72336;BME280;65062;48.446;8.834;2023-03-12T05:12:30;97066.84;;;0.18;80.70
72336;BME280;65062;48.446;8.834;2023-03-12T05:15:30;97063.50;;;0.18;80.71
72336;BME280;65062;48.446;8.834;2023-03-12T05:18:31;97062.09;;;0.14;81.34
72336;BME280;65062;48.446;8.834;2023-03-12T05:21:31;97065.88;;;0.10;80.84
72336;BME280;65062;48.446;8.834;2023-03-12T05:24:32;97062.22;;;0.12;81.80
72336;BME280;65062;48.446;8.834;2023-03-12T05:27:32;97075.53;;;0.17;81.37
72336;BME280;65062;48.446;8.834;2023-03-12T05:30:33;97066.06;;;0.18;81.07
72336;BME280;65062;48.446;8.834;2023-03-12T05:33:33;97063.38;;;0.38;80.18
72336;BME280;65062;48.446;8.834;2023-03-12T05:36:33;97066.22;;;0.35;79.78
72336;BME280;65062;48.446;8.834;2023-03-12T05:39:34;97061.63;;;0.29;80.17
72336;BME280;65062;48.446;8.834;2023-03-12T05:42:34;97071.22;;;0.27;80.57
72336;BME280;65062;48.446;8.834;2023-03-12T05:45:34;97068.53;;;0.38;80.80
72336;BME280;65062;48.446;8.834;2023-03-12T05:48:35;97068.81;;;0.45;80.64
72336;BME280;65062;48.446;8.834;2023-03-12T05:51:36;97078.31;;;0.44;79.93
72336;BME280;65062;48.446;8.834;2023-03-12T05:54:36;97077.31;;;0.36;80.48
72336;BME280;65062;48.446;8.834;2023-03-12T05:57:36;97074.34;;;0.40;80.86
72336;BME280;65062;48.446;8.834;2023-03-12T06:00:37;97064.34;;;0.47;80.39
72336;BME280;65062;48.446;8.834;2023-03-12T06:03:38;97067.72;;;0.47;79.89
72336;BME280;65062;48.446;8.834;2023-03-12T06:06:38;97066.78;;;0.48;79.59
72336;BME280;65062;48.446;8.834;2023-03-12T06:09:38;97085.47;;;0.41;80.89
72336;BME280;65062;48.446;8.834;2023-03-12T06:12:39;97067.06;;;0.45;81.52
72336;BME280;65062;48.446;8.834;2023-03-12T06:15:39;97054.06;;;0.47;82.44
72336;BME280;65062;48.446;8.834;2023-03-12T06:18:40;97063.66;;;0.45;82.95
72336;BME280;65062;48.446;8.834;2023-03-12T06:21:41;97069.09;;;0.61;82.50
72336;BME280;65062;48.446;8.834;2023-03-12T06:24:42;97071.00;;;0.68;81.64
72336;BME280;65062;48.446;8.834;2023-03-12T06:27:46;97063.56;;;0.75;82.01
72336;BME280;65062;48.446;8.834;2023-03-12T06:30:46;97071.16;;;0.76;81.21
72336;BME280;65062;48.446;8.834;2023-03-12T06:33:47;97065.44;;;0.82;81.42
72336;BME280;65062;48.446;8.834;2023-03-12T06:36:47;97070.06;;;0.79;81.49
72336;BME280;65062;48.446;8.834;2023-03-12T06:39:48;97075.88;;;0.81;82.06
72336;BME280;65062;48.446;8.834;2023-03-12T06:42:48;97076.56;;;0.73;82.45
72336;BME280;65062;48.446;8.834;2023-03-12T06:45:48;97075.75;;;0.73;82.65
72336;BME280;65062;48.446;8.834;2023-03-12T06:48:49;97075.59;;;0.74;83.62
72336;BME280;65062;48.446;8.834;2023-03-12T06:51:49;97082.50;;;0.64;83.42
72336;BME280;65062;48.446;8.834;2023-03-12T06:54:50;97076.94;;;0.59;84.13
72336;BME280;65062;48.446;8.834;2023-03-12T06:57:50;97076.44;;;0.75;84.40
72336;BME280;65062;48.446;8.834;2023-03-12T07:00:51;97077.38;;;0.83;83.84
72336;BME280;65062;48.446;8.834;2023-03-12T07:03:52;97090.66;;;0.88;83.50
72336;BME280;65062;48.446;8.834;2023-03-12T07:06:52;97087.66;;;0.93;83.71
72336;BME280;65062;48.446;8.834;2023-03-12T07:09:52;97082.53;;;1.02;83.67
72336;BME280;65062;48.446;8.834;2023-03-12T07:12:53;97086.16;;;1.09;83.33
72336;BME280;65062;48.446;8.834;2023-03-12T07:15:54;97085.22;;;1.20;83.71
72336;BME280;65062;48.446;8.834;2023-03-12T07:18:54;97093.19;;;1.36;83.69
72336;BME280;65062;48.446;8.834;2023-03-12T07:21:55;97099.97;;;1.46;82.01
72336;BME280;65062;48.446;8.834;2023-03-12T07:24:56;97101.31;;;1.50;82.01
72336;BME280;65062;48.446;8.834;2023-03-12T07:27:56;97102.63;;;1.64;81.55
72336;BME280;65062;48.446;8.834;2023-03-12T07:31:03;97101.38;;;1.77;80.25
72336;BME280;65062;48.446;8.834;2023-03-12T07:34:03;97106.53;;;2.14;80.42
72336;BME280;65062;48.446;8.834;2023-03-12T07:37:05;97108.88;;;2.35;80.32
72336;BME280;65062;48.446;8.834;2023-03-12T07:40:06;97093.97;;;2.46;79.04
72336;BME280;65062;48.446;8.834;2023-03-12T07:43:06;97096.00;;;2.70;79.03
72336;BME280;65062;48.446;8.834;2023-03-12T07:46:10;97096.09;;;2.60;78.36
72336;BME280;65062;48.446;8.834;2023-03-12T07:49:10;97087.91;;;2.65;78.96
72336;BME280;65062;48.446;8.834;2023-03-12T07:52:11;97089.97;;;2.79;79.68
72336;BME280;65062;48.446;8.834;2023-03-12T07:55:11;97081.47;;;2.86;78.93
72336;BME280;65062;48.446;8.834;2023-03-12T07:58:13;97087.38;;;3.14;79.23
72336;BME280;65062;48.446;8.834;2023-03-12T08:01:14;97087.97;;;3.08;78.62
72336;BME280;65062;48.446;8.834;2023-03-12T08:04:14;97096.69;;;3.07;79.14
72336;BME280;65062;48.446;8.834;2023-03-12T08:07:15;97087.28;;;3.23;78.25
72336;BME280;65062;48.446;8.834;2023-03-12T08:10:15;97087.34;;;3.31;78.26
72336;BME280;65062;48.446;8.834;2023-03-12T08:13:16;97087.94;;;3.68;78.11
72336;BME280;65062;48.446;8.834;2023-03-12T08:16:17;97086.13;;;3.94;75.91
72336;BME280;65062;48.446;8.834;2023-03-12T08:19:17;97087.50;;;3.81;77.27
72336;BME280;65062;48.446;8.834;2023-03-12T08:22:18;97091.81;;;3.72;78.18
72336;BME280;65062;48.446;8.834;2023-03-12T08:25:18;97092.78;;;3.71;77.99
72336;BME280;65062;48.446;8.834;2023-03-12T08:28:21;97094.81;;;3.85;78.99
72336;BME280;65062;48.446;8.834;2023-03-12T08:31:22;97094.34;;;3.90;79.12
72336;BME280;65062;48.446;8.834;2023-03-12T08:34:22;97090.69;;;4.00;78.84
72336;BME280;65062;48.446;8.834;2023-03-12T08:37:23;97096.97;;;4.31;79.55
72336;BME280;65062;48.446;8.834;2023-03-12T08:40:23;97087.06;;;4.77;80.17
72336;BME280;65062;48.446;8.834;2023-03-12T08:43:24;97088.09;;;5.16;78.92
72336;BME280;65062;48.446;8.834;2023-03-12T08:46:25;97095.72;;;5.57;79.53
72336;BME280;65062;48.446;8.834;2023-03-12T08:49:25;97093.69;;;5.99;79.14
72336;BME280;65062;48.446;8.834;2023-03-12T08:52:26;97102.03;;;6.33;78.34
72336;BME280;65062;48.446;8.834;2023-03-12T08:55:26;97100.97;;;6.59;78.24
72336;BME280;65062;48.446;8.834;2023-03-12T08:58:27;97102.13;;;6.79;76.46
72336;BME280;65062;48.446;8.834;2023-03-12T09:01:28;97095.81;;;7.04;76.31
72336;BME280;65062;48.446;8.834;2023-03-12T09:04:28;97100.19;;;7.26;76.02
72336;BME280;65062;48.446;8.834;2023-03-12T09:07:31;97090.69;;;7.33;75.61
72336;BME280;65062;48.446;8.834;2023-03-12T09:10:32;97099.16;;;7.57;74.79
72336;BME280;65062;48.446;8.834;2023-03-12T09:13:32;97107.06;;;7.78;75.79
72336;BME280;65062;48.446;8.834;2023-03-12T09:16:33;97112.22;;;8.01;74.78
72336;BME280;65062;48.446;8.834;2023-03-12T09:19:34;97109.13;;;8.34;74.95
72336;BME280;65062;48.446;8.834;2023-03-12T09:22:35;97117.81;;;8.56;76.85
72336;BME280;65062;48.446;8.834;2023-03-12T09:25:36;97131.09;;;8.76;76.38
72336;BME280;65062;48.446;8.834;2023-03-12T09:28:36;97119.69;;;8.62;74.89
72336;BME280;65062;48.446;8.834;2023-03-12T09:31:37;97121.44;;;8.91;75.50
72336;BME280;65062;48.446;8.834;2023-03-12T09:34:37;97116.13;;;9.20;74.13
72336;BME280;65062;48.446;8.834;2023-03-12T09:37:38;97117.91;;;9.34;73.56
72336;BME280;65062;48.446;8.834;2023-03-12T09:40:38;97131.06;;;9.47;73.61
72336;BME280;65062;48.446;8.834;2023-03-12T09:43:42;97134.91;;;9.72;73.92
72336;BME280;65062;48.446;8.834;2023-03-12T09:46:53;97134.94;;;9.78;72.43
72336;BME280;65062;48.446;8.834;2023-03-12T09:50:16;97132.31;;;10.27;73.08
72336;BME280;65062;48.446;8.834;2023-03-12T09:56:20;97135.81;;;10.75;70.78
72336;BME280;65062;48.446;8.834;2023-03-12T09:59:21;97137.03;;;10.79;70.97
72336;BME280;65062;48.446;8.834;2023-03-12T10:05:50;97131.44;;;10.95;68.83
72336;BME280;65062;48.446;8.834;2023-03-12T10:15:26;97154.47;;;10.65;69.95
72336;BME280;65062;48.446;8.834;2023-03-12T10:18:41;97148.84;;;10.62;68.74
72336;BME280;65062;48.446;8.834;2023-03-12T10:22:06;97149.03;;;11.07;68.82
72336;BME280;65062;48.446;8.834;2023-03-12T10:28:17;97166.78;;;11.12;67.26
72336;BME280;65062;48.446;8.834;2023-03-12T10:31:24;97171.19;;;11.11;65.60
72336;BME280;65062;48.446;8.834;2023-03-12T10:34:43;97177.38;;;10.56;68.53
72336;BME280;65062;48.446;8.834;2023-03-12T10:37:51;97173.25;;;10.75;68.58
72336;BME280;65062;48.446;8.834;2023-03-12T10:40:53;97165.31;;;11.03;68.47
72336;BME280;65062;48.446;8.834;2023-03-12T10:43:56;97172.28;;;11.36;66.55
72336;BME280;65062;48.446;8.834;2023-03-12T10:47:06;97184.09;;;11.13;66.44
72336;BME280;65062;48.446;8.834;2023-03-12T10:53:22;97192.53;;;11.08;67.17
72336;BME280;65062;48.446;8.834;2023-03-12T10:56:23;97195.63;;;11.31;64.99
72336;BME280;65062;48.446;8.834;2023-03-12T10:59:30;97192.94;;;11.72;64.70
72336;BME280;65062;48.446;8.834;2023-03-12T11:02:33;97192.06;;;11.45;67.20
72336;BME280;65062;48.446;8.834;2023-03-12T11:05:45;97210.16;;;11.34;67.26
72336;BME280;65062;48.446;8.834;2023-03-12T11:09:03;97210.56;;;11.37;65.48
72336;BME280;65062;48.446;8.834;2023-03-12T11:12:27;97206.00;;;11.05;67.64
72336;BME280;65062;48.446;8.834;2023-03-12T11:21:30;97218.47;;;10.97;67.25
72336;BME280;65062;48.446;8.834;2023-03-12T11:24:31;97206.38;;;11.49;64.93
72336;BME280;65062;48.446;8.834;2023-03-12T11:27:39;97199.41;;;12.34;63.46
72336;BME280;65062;48.446;8.834;2023-03-12T11:30:41;97209.63;;;12.75;62.97
72336;BME280;65062;48.446;8.834;2023-03-12T11:33:43;97200.41;;;12.46;60.84
72336;BME280;65062;48.446;8.834;2023-03-12T11:41:13;97199.81;;;11.99;61.46
72336;BME280;65062;48.446;8.834;2023-03-12T11:47:12;97191.84;;;11.47;63.58
72336;BME280;65062;48.446;8.834;2023-03-12T11:53:50;97194.38;;;12.33;61.83
72336;BME280;65062;48.446;8.834;2023-03-12T12:00:36;97194.63;;;13.02;58.71
72336;BME280;65062;48.446;8.834;2023-03-12T12:10:21;97178.16;;;13.63;54.77
72336;BME280;65062;48.446;8.834;2023-03-12T12:26:32;97160.22;;;16.94;44.70
72336;BME280;65062;48.446;8.834;2023-03-12T12:36:13;97140.22;;;14.08;51.24
72336;BME280;65062;48.446;8.834;2023-03-12T12:39:14;97133.34;;;14.68;49.72
72336;BME280;65062;48.446;8.834;2023-03-12T12:42:22;97138.66;;;15.34;47.00
72336;BME280;65062;48.446;8.834;2023-03-12T12:45:25;97143.59;;;15.71;47.41
72336;BME280;65062;48.446;8.834;2023-03-12T12:48:39;97147.06;;;17.10;43.87
72336;BME280;65062;48.446;8.834;2023-03-12T12:51:47;97148.72;;;18.00;41.52
72336;BME280;65062;48.446;8.834;2023-03-12T12:55:11;97135.69;;;20.36;35.77
72336;BME280;65062;48.446;8.834;2023-03-12T12:58:24;97136.97;;;21.22;35.69
72336;BME280;65062;48.446;8.834;2023-03-12T13:01:25;97137.41;;;22.10;33.46
72336;BME280;65062;48.446;8.834;2023-03-12T13:07:32;97143.69;;;18.87;41.05
72336;BME280;65062;48.446;8.834;2023-03-12T13:13:33;97151.00;;;16.04;44.40
72336;BME280;65062;48.446;8.834;2023-03-12T13:16:38;97148.00;;;14.82;49.16
72336;BME280;65062;48.446;8.834;2023-03-12T13:19:39;97161.97;;;14.46;50.01
72336;BME280;65062;48.446;8.834;2023-03-12T13:26:05;97155.94;;;13.90;52.09
72336;BME280;65062;48.446;8.834;2023-03-12T13:32:35;97163.50;;;13.12;54.88
72336;BME280;65062;48.446;8.834;2023-03-12T13:35:37;97170.44;;;13.37;58.01
72336;BME280;65062;48.446;8.834;2023-03-12T13:38:55;97160.44;;;14.32;57.93
72336;BME280;65062;48.446;8.834;2023-03-12T13:41:58;97165.38;;;15.19;53.78
72336;BME280;65062;48.446;8.834;2023-03-12T13:45:23;97173.59;;;14.93;52.50
72336;BME280;65062;48.446;8.834;2023-03-12T13:48:25;97178.78;;;14.63;55.68
72336;BME280;65062;48.446;8.834;2023-03-12T13:51:25;97180.53;;;13.78;55.65
72336;BME280;65062;48.446;8.834;2023-03-12T13:54:30;97189.31;;;13.21;58.68
72336;BME280;65062;48.446;8.834;2023-03-12T13:57:44;97175.84;;;12.98;59.61
72336;BME280;65062;48.446;8.834;2023-03-12T14:03:57;97177.06;;;13.02;60.99
72336;BME280;65062;48.446;8.834;2023-03-12T14:13:38;97163.38;;;17.19;47.01
72336;BME280;65062;48.446;8.834;2023-03-12T14:16:48;97155.69;;;19.32;41.16
72336;BME280;65062;48.446;8.834;2023-03-12T14:20:00;97155.41;;;18.52;42.44
72336;BME280;65062;48.446;8.834;2023-03-12T14:23:07;97159.75;;;16.97;45.68
72336;BME280;65062;48.446;8.834;2023-03-12T14:26:18;97162.28;;;14.93;50.69
72336;BME280;65062;48.446;8.834;2023-03-12T14:29:25;97164.19;;;15.81;50.49
72336;BME280;65062;48.446;8.834;2023-03-12T14:32:30;97163.34;;;16.44;45.94
72336;BME280;65062;48.446;8.834;2023-03-12T14:35:36;97161.13;;;15.18;50.33
72336;BME280;65062;48.446;8.834;2023-03-12T14:38:43;97165.94;;;14.31;53.23
72336;BME280;65062;48.446;8.834;2023-03-12T14:41:48;97163.50;;;13.49;55.65
72336;BME280;65062;48.446;8.834;2023-03-12T14:45:09;97172.22;;;12.99;58.05
72336;BME280;65062;48.446;8.834;2023-03-12T14:48:10;97168.44;;;12.82;57.71
72336;BME280;65062;48.446;8.834;2023-03-12T14:51:20;97160.53;;;14.26;55.29
72336;BME280;65062;48.446;8.834;2023-03-12T14:54:24;97168.19;;;17.22;47.24
72336;BME280;65062;48.446;8.834;2023-03-12T14:57:25;97162.69;;;20.59;38.14
72336;BME280;65062;48.446;8.834;2023-03-12T15:00:26;97157.34;;;22.88;33.34
72336;BME280;65062;48.446;8.834;2023-03-12T15:03:28;97173.88;;;23.64;32.41
72336;BME280;65062;48.446;8.834;2023-03-12T15:06:30;97170.13;;;23.01;31.17
72336;BME280;65062;48.446;8.834;2023-03-12T15:09:33;97180.25;;;18.02;42.84
72336;BME280;65062;48.446;8.834;2023-03-12T15:12:36;97189.38;;;17.10;45.16
72336;BME280;65062;48.446;8.834;2023-03-12T15:15:47;97182.06;;;16.54;45.01
72336;BME280;65062;48.446;8.834;2023-03-12T15:18:49;97174.69;;;16.33;44.96
72336;BME280;65062;48.446;8.834;2023-03-12T15:21:50;97172.75;;;16.75;44.07
72336;BME280;65062;48.446;8.834;2023-03-12T15:24:50;97160.03;;;17.79;41.45
72336;BME280;65062;48.446;8.834;2023-03-12T15:31:15;97149.97;;;16.16;46.14
72336;BME280;65062;48.446;8.834;2023-03-12T15:34:33;97166.63;;;15.17;49.32
72336;BME280;65062;48.446;8.834;2023-03-12T15:37:34;97156.44;;;14.05;49.53
72336;BME280;65062;48.446;8.834;2023-03-12T15:40:40;97163.84;;;13.84;50.82
72336;BME280;65062;48.446;8.834;2023-03-12T15:43:42;97157.59;;;13.85;51.76
72336;BME280;65062;48.446;8.834;2023-03-12T15:46:50;97151.72;;;14.07;51.55
72336;BME280;65062;48.446;8.834;2023-03-12T15:49:57;97150.34;;;13.80;50.64
72336;BME280;65062;48.446;8.834;2023-03-12T15:56:32;97147.13;;;13.16;52.86
72336;BME280;65062;48.446;8.834;2023-03-12T15:59:32;97155.44;;;13.00;53.69
72336;BME280;65062;48.446;8.834;2023-03-12T16:02:35;97145.38;;;12.91;52.94
72336;BME280;65062;48.446;8.834;2023-03-12T16:05:38;97140.16;;;12.71;55.15
72336;BME280;65062;48.446;8.834;2023-03-12T16:08:45;97149.91;;;12.64;55.28
72336;BME280;65062;48.446;8.834;2023-03-12T16:11:47;97152.59;;;12.38;57.30
72336;BME280;65062;48.446;8.834;2023-03-12T16:14:48;97147.94;;;12.33;57.23
72336;BME280;65062;48.446;8.834;2023-03-12T16:17:48;97159.06;;;12.22;55.98
72336;BME280;65062;48.446;8.834;2023-03-12T16:20:50;97144.56;;;12.07;56.55
72336;BME280;65062;48.446;8.834;2023-03-12T16:23:51;97137.50;;;12.01;57.47
72336;BME280;65062;48.446;8.834;2023-03-12T16:26:54;97151.41;;;11.95;58.11
72336;BME280;65062;48.446;8.834;2023-03-12T16:29:55;97148.56;;;11.90;56.48
72336;BME280;65062;48.446;8.834;2023-03-12T16:32:57;97151.41;;;11.82;55.54
72336;BME280;65062;48.446;8.834;2023-03-12T16:35:58;97149.97;;;11.66;56.47
72336;BME280;65062;48.446;8.834;2023-03-12T16:38:59;97149.13;;;11.59;56.72
72336;BME280;65062;48.446;8.834;2023-03-12T16:42:00;97151.53;;;11.48;59.29
72336;BME280;65062;48.446;8.834;2023-03-12T16:45:01;97151.34;;;11.49;57.14
72336;BME280;65062;48.446;8.834;2023-03-12T16:48:05;97143.06;;;11.39;56.61
72336;BME280;65062;48.446;8.834;2023-03-12T16:51:12;97127.91;;;11.28;57.85
72336;BME280;65062;48.446;8.834;2023-03-12T16:54:13;97129.47;;;11.16;59.10
72336;BME280;65062;48.446;8.834;2023-03-12T16:57:20;97120.81;;;11.03;57.46
72336;BME280;65062;48.446;8.834;2023-03-12T17:00:28;97128.44;;;10.91;57.67
72336;BME280;65062;48.446;8.834;2023-03-12T17:03:32;97126.59;;;10.85;57.55
72336;BME280;65062;48.446;8.834;2023-03-12T17:06:32;97114.00;;;10.61;58.85
72336;BME280;65062;48.446;8.834;2023-03-12T17:09:33;97123.44;;;10.62;59.62
72336;BME280;65062;48.446;8.834;2023-03-12T17:12:36;97132.47;;;10.53;59.17
72336;BME280;65062;48.446;8.834;2023-03-12T17:15:37;97132.31;;;10.27;59.97
72336;BME280;65062;48.446;8.834;2023-03-12T17:18:39;97124.09;;;10.02;60.47
72336;BME280;65062;48.446;8.834;2023-03-12T17:21:39;97130.72;;;10.05;59.18
72336;BME280;65062;48.446;8.834;2023-03-12T17:24:40;97140.16;;;9.99;60.12
72336;BME280;65062;48.446;8.834;2023-03-12T17:27:40;97147.38;;;9.97;59.34
72336;BME280;65062;48.446;8.834;2023-03-12T17:30:41;97143.34;;;9.74;63.19
72336;BME280;65062;48.446;8.834;2023-03-12T17:33:42;97147.22;;;9.36;65.45
72336;BME280;65062;48.446;8.834;2023-03-12T17:36:44;97155.63;;;9.10;65.20
72336;BME280;65062;48.446;8.834;2023-03-12T17:39:44;97152.84;;;8.83;63.94
72336;BME280;65062;48.446;8.834;2023-03-12T17:42:44;97149.31;;;8.69;66.68
72336;BME280;65062;48.446;8.834;2023-03-12T17:45:45;97151.28;;;8.38;68.61
72336;BME280;65062;48.446;8.834;2023-03-12T17:48:45;97162.34;;;8.25;69.33
72336;BME280;65062;48.446;8.834;2023-03-12T17:51:45;97172.34;;;7.99;69.32